sensor_id;sensor_type;location;lat;lon;timestamp;temperature;humidity
40996;DHT22;26723;57.478;12.066;2023-01-30T00:02:56;5.60;99.90
40996;DHT22;26723;57.478;12.066;2023-01-30T00:06:05;5.60;99.90
40996;DHT22;26723;57.478;12.066;2023-01-30T00:09:15;5.60;99.90
40996;DHT22;26723;57.478;12.066;2023-01-30T00:12:23;5.60;99.90
40996;DHT22;26723;57.478;12.066;2023-01-30T00:15:32;5.70;99.90
40996;DHT22;26723;57.478;12.066;2023-01-30T00:18:41;5.70;99.90
40996;DHT22;26723;57.478;12.066;2023-01-30T00:21:50;5.70;99.90
40996;DHT22;26723;57.478;12.066;2023-01-30T00:24:59;5.60;99.90
40996;DHT22;26723;57.478;12.066;2023-01-30T00:28:08;5.60;99.90
40996;DHT22;26723;57.478;12.066;2023-01-30T00:31:16;5.50;99.90
40996;DHT22;26723;57.478;12.066;2023-01-30T00:34:25;5.50;99.90
40996;DHT22;26723;57.478;12.066;2023-01-30T00:37:33;5.50;99.90
40996;DHT22;26723;57.478;12.066;2023-01-30T00:40:43;5.40;99.90
40996;DHT22;26723;57.478;12.066;2023-01-30T00:43:52;5.40;99.90
40996;DHT22;26723;57.478;12.066;2023-01-30T00:47:19;5.40;99.90
40996;DHT22;26723;57.478;12.066;2023-01-30T00:50:28;5.40;99.90
40996;DHT22;26723;57.478;12.066;2023-01-30T00:53:51;5.40;99.90
40996;DHT22;26723;57.478;12.066;2023-01-30T00:57:00;5.40;99.90
40996;DHT22;26723;57.478;12.066;2023-01-30T01:00:11;5.40;99.90
40996;DHT22;26723;57.478;12.066;2023-01-30T01:03:19;5.30;99.90
40996;DHT22;26723;57.478;12.066;2023-01-30T01:06:28;5.30;99.90
40996;DHT22;26723;57.478;12.066;2023-01-30T01:09:37;5.30;99.90
40996;DHT22;26723;57.478;12.066;2023-01-30T01:12:48;5.30;99.90
40996;DHT22;26723;57.478;12.066;2023-01-30T01:15:58;5.20;99.90
40996;DHT22;26723;57.478;12.066;2023-01-30T01:19:07;5.20;99.90
40996;DHT22;26723;57.478;12.066;2023-01-30T01:22:15;5.20;99.90
40996;DHT22;26723;57.478;12.066;2023-01-30T01:25:25;5.10;99.90
40996;DHT22;26723;57.478;12.066;2023-01-30T01:28:35;5.10;99.90
40996;DHT22;26723;57.478;12.066;2023-01-30T01:31:43;5.10;99.90
40996;DHT22;26723;57.478;12.066;2023-01-30T01:34:54;5.20;99.90
40996;DHT22;26723;57.478;12.066;2023-01-30T01:38:03;5.20;99.90
40996;DHT22;26723;57.478;12.066;2023-01-30T01:41:12;5.10;99.90
40996;DHT22;26723;57.478;12.066;2023-01-30T01:44:24;5.10;99.90
40996;DHT22;26723;57.478;12.066;2023-01-30T01:47:34;5.10;99.90
40996;DHT22;26723;57.478;12.066;2023-01-30T01:50:47;5.10;99.90
40996;DHT22;26723;57.478;12.066;2023-01-30T01:54:04;5.00;99.90
40996;DHT22;26723;57.478;12.066;2023-01-30T01:57:16;5.00;99.90
40996;DHT22;26723;57.478;12.066;2023-01-30T02:00:27;5.00;99.90
40996;DHT22;26723;57.478;12.066;2023-01-30T02:03:41;5.30;99.90
40996;DHT22;26723;57.478;12.066;2023-01-30T02:06:50;5.20;99.90
40996;DHT22;26723;57.478;12.066;2023-01-30T02:09:59;5.10;99.90
40996;DHT22;26723;57.478;12.066;2023-01-30T02:13:07;5.00;99.90
40996;DHT22;26723;57.478;12.066;2023-01-30T02:16:17;5.00;99.90
40996;DHT22;26723;57.478;12.066;2023-01-30T02:19:34;5.00;99.90
40996;DHT22;26723;57.478;12.066;2023-01-30T02:26:46;5.00;99.90
40996;DHT22;26723;57.478;12.066;2023-01-30T02:30:44;4.90;99.90
40996;DHT22;26723;57.478;12.066;2023-01-30T02:34:16;4.90;99.90
40996;DHT22;26723;57.478;12.066;2023-01-30T02:37:35;4.90;99.90
40996;DHT22;26723;57.478;12.066;2023-01-30T02:40:51;4.90;99.90
40996;DHT22;26723;57.478;12.066;2023-01-30T02:44:07;4.80;99.90
40996;DHT22;26723;57.478;12.066;2023-01-30T02:47:24;4.90;99.90
40996;DHT22;26723;57.478;12.066;2023-01-30T02:50:39;4.90;99.90
40996;DHT22;26723;57.478;12.066;2023-01-30T02:53:50;4.90;99.90
40996;DHT22;26723;57.478;12.066;2023-01-30T02:56:59;4.90;99.90
40996;DHT22;26723;57.478;12.066;2023-01-30T03:00:09;4.90;99.90
40996;DHT22;26723;57.478;12.066;2023-01-30T03:03:26;4.90;99.90
40996;DHT22;26723;57.478;12.066;2023-01-30T03:06:52;4.90;99.90
40996;DHT22;26723;57.478;12.066;2023-01-30T03:10:08;4.90;99.90
40996;DHT22;26723;57.478;12.066;2023-01-30T03:13:38;4.80;99.90
40996;DHT22;26723;57.478;12.066;2023-01-30T03:16:52;4.80;99.90
40996;DHT22;26723;57.478;12.066;2023-01-30T03:20:04;4.80;99.90
40996;DHT22;26723;57.478;12.066;2023-01-30T03:23:12;4.70;99.90
40996;DHT22;26723;57.478;12.066;2023-01-30T03:26:23;4.70;99.90
40996;DHT22;26723;57.478;12.066;2023-01-30T03:29:33;4.80;99.90
40996;DHT22;26723;57.478;12.066;2023-01-30T03:32:42;4.80;99.90
40996;DHT22;26723;57.478;12.066;2023-01-30T03:35:52;4.80;99.90
40996;DHT22;26723;57.478;12.066;2023-01-30T03:39:00;4.80;99.90
40996;DHT22;26723;57.478;12.066;2023-01-30T03:42:09;4.80;99.90
40996;DHT22;26723;57.478;12.066;2023-01-30T03:45:17;4.80;99.90
40996;DHT22;26723;57.478;12.066;2023-01-30T03:48:27;4.80;99.90
40996;DHT22;26723;57.478;12.066;2023-01-30T03:51:37;4.80;99.90
40996;DHT22;26723;57.478;12.066;2023-01-30T03:54:45;4.90;99.90
40996;DHT22;26723;57.478;12.066;2023-01-30T03:57:55;4.90;99.90
40996;DHT22;26723;57.478;12.066;2023-01-30T04:01:07;4.90;99.90
40996;DHT22;26723;57.478;12.066;2023-01-30T04:04:15;5.00;99.90
40996;DHT22;26723;57.478;12.066;2023-01-30T04:07:27;5.00;99.90
40996;DHT22;26723;57.478;12.066;2023-01-30T04:10:36;5.00;99.90
40996;DHT22;26723;57.478;12.066;2023-01-30T04:13:45;5.10;99.90
40996;DHT22;26723;57.478;12.066;2023-01-30T04:16:53;5.00;99.90
40996;DHT22;26723;57.478;12.066;2023-01-30T04:20:27;5.00;99.90
40996;DHT22;26723;57.478;12.066;2023-01-30T04:23:38;5.00;99.90
40996;DHT22;26723;57.478;12.066;2023-01-30T04:26:46;4.90;99.90
40996;DHT22;26723;57.478;12.066;2023-01-30T04:29:55;4.80;99.90
40996;DHT22;26723;57.478;12.066;2023-01-30T04:33:03;4.80;99.90
40996;DHT22;26723;57.478;12.066;2023-01-30T04:36:12;4.80;99.90
40996;DHT22;26723;57.478;12.066;2023-01-30T04:39:24;4.80;99.90
40996;DHT22;26723;57.478;12.066;2023-01-30T04:42:32;4.70;99.90
40996;DHT22;26723;57.478;12.066;2023-01-30T04:46:07;4.70;99.90
40996;DHT22;26723;57.478;12.066;2023-01-30T04:49:15;4.70;99.90
40996;DHT22;26723;57.478;12.066;2023-01-30T04:52:24;4.70;99.90
40996;DHT22;26723;57.478;12.066;2023-01-30T04:55:34;4.60;99.90
40996;DHT22;26723;57.478;12.066;2023-01-30T04:58:43;4.60;99.90
40996;DHT22;26723;57.478;12.066;2023-01-30T05:01:52;4.60;99.90
40996;DHT22;26723;57.478;12.066;2023-01-30T05:05:01;4.60;99.90
40996;DHT22;26723;57.478;12.066;2023-01-30T05:08:10;4.70;99.90
40996;DHT22;26723;57.478;12.066;2023-01-30T05:11:23;4.70;99.90
40996;DHT22;26723;57.478;12.066;2023-01-30T05:14:31;4.70;99.90
40996;DHT22;26723;57.478;12.066;2023-01-30T05:17:41;4.60;99.90
40996;DHT22;26723;57.478;12.066;2023-01-30T05:20:50;4.60;99.90
40996;DHT22;26723;57.478;12.066;2023-01-30T05:23:59;4.60;99.90
40996;DHT22;26723;57.478;12.066;2023-01-30T05:27:08;4.50;99.90
40996;DHT22;26723;57.478;12.066;2023-01-30T05:30:17;4.50;99.90
40996;DHT22;26723;57.478;12.066;2023-01-30T05:33:26;4.60;99.90
40996;DHT22;26723;57.478;12.066;2023-01-30T05:36:34;4.60;99.90
40996;DHT22;26723;57.478;12.066;2023-01-30T05:39:42;4.70;99.90
40996;DHT22;26723;57.478;12.066;2023-01-30T05:42:52;4.80;99.90
40996;DHT22;26723;57.478;12.066;2023-01-30T05:46:03;4.80;99.90
40996;DHT22;26723;57.478;12.066;2023-01-30T05:49:12;4.80;99.90
40996;DHT22;26723;57.478;12.066;2023-01-30T05:52:20;4.80;99.90
40996;DHT22;26723;57.478;12.066;2023-01-30T05:55:28;4.70;99.90
40996;DHT22;26723;57.478;12.066;2023-01-30T05:58:38;4.70;99.90
40996;DHT22;26723;57.478;12.066;2023-01-30T06:01:47;4.70;99.90
40996;DHT22;26723;57.478;12.066;2023-01-30T06:04:55;4.70;99.90
40996;DHT22;26723;57.478;12.066;2023-01-30T06:08:04;4.70;99.90
40996;DHT22;26723;57.478;12.066;2023-01-30T06:11:15;4.70;99.90
40996;DHT22;26723;57.478;12.066;2023-01-30T06:14:25;4.70;99.90
40996;DHT22;26723;57.478;12.066;2023-01-30T06:17:34;4.60;99.90
40996;DHT22;26723;57.478;12.066;2023-01-30T06:20:46;4.50;99.90
40996;DHT22;26723;57.478;12.066;2023-01-30T06:23:55;4.40;99.90
40996;DHT22;26723;57.478;12.066;2023-01-30T06:27:03;4.40;99.90
40996;DHT22;26723;57.478;12.066;2023-01-30T06:30:14;4.30;99.90
40996;DHT22;26723;57.478;12.066;2023-01-30T06:33:22;4.40;99.90
40996;DHT22;26723;57.478;12.066;2023-01-30T06:36:31;4.30;99.90
40996;DHT22;26723;57.478;12.066;2023-01-30T06:39:39;4.40;99.90
40996;DHT22;26723;57.478;12.066;2023-01-30T06:42:48;4.40;99.90
40996;DHT22;26723;57.478;12.066;2023-01-30T06:45:59;4.50;99.90
40996;DHT22;26723;57.478;12.066;2023-01-30T06:49:07;4.50;99.90
40996;DHT22;26723;57.478;12.066;2023-01-30T06:52:16;4.50;99.90
40996;DHT22;26723;57.478;12.066;2023-01-30T06:55:25;4.50;99.90
40996;DHT22;26723;57.478;12.066;2023-01-30T06:58:34;4.50;99.90
40996;DHT22;26723;57.478;12.066;2023-01-30T07:01:44;4.50;99.90
40996;DHT22;26723;57.478;12.066;2023-01-30T07:04:52;4.50;99.90
40996;DHT22;26723;57.478;12.066;2023-01-30T07:08:01;4.50;99.90
40996;DHT22;26723;57.478;12.066;2023-01-30T07:11:09;4.50;99.90
40996;DHT22;26723;57.478;12.066;2023-01-30T07:14:18;4.60;99.90
40996;DHT22;26723;57.478;12.066;2023-01-30T07:17:28;4.60;99.90
40996;DHT22;26723;57.478;12.066;2023-01-30T07:20:36;4.60;99.90
40996;DHT22;26723;57.478;12.066;2023-01-30T07:23:46;4.60;99.90
40996;DHT22;26723;57.478;12.066;2023-01-30T07:26:54;4.60;99.90
40996;DHT22;26723;57.478;12.066;2023-01-30T07:30:03;4.70;99.90
40996;DHT22;26723;57.478;12.066;2023-01-30T07:33:13;4.70;99.90
40996;DHT22;26723;57.478;12.066;2023-01-30T07:36:22;4.80;99.90
40996;DHT22;26723;57.478;12.066;2023-01-30T07:39:30;4.80;99.90
40996;DHT22;26723;57.478;12.066;2023-01-30T07:42:38;4.90;99.90
40996;DHT22;26723;57.478;12.066;2023-01-30T07:45:47;4.90;99.90
40996;DHT22;26723;57.478;12.066;2023-01-30T07:48:57;4.90;99.90
40996;DHT22;26723;57.478;12.066;2023-01-30T07:52:06;5.00;99.90
40996;DHT22;26723;57.478;12.066;2023-01-30T07:55:16;5.00;99.90
40996;DHT22;26723;57.478;12.066;2023-01-30T07:58:25;4.90;99.90
40996;DHT22;26723;57.478;12.066;2023-01-30T08:01:35;5.00;99.90
40996;DHT22;26723;57.478;12.066;2023-01-30T08:04:45;5.20;99.90
40996;DHT22;26723;57.478;12.066;2023-01-30T08:07:55;5.30;99.90
40996;DHT22;26723;57.478;12.066;2023-01-30T08:11:03;5.50;99.90
40996;DHT22;26723;57.478;12.066;2023-01-30T08:14:12;5.50;99.90
40996;DHT22;26723;57.478;12.066;2023-01-30T08:17:21;6.60;99.90
40996;DHT22;26723;57.478;12.066;2023-01-30T08:20:31;6.10;99.90
40996;DHT22;26723;57.478;12.066;2023-01-30T08:23:39;5.70;99.90
40996;DHT22;26723;57.478;12.066;2023-01-30T08:26:48;5.60;99.90
40996;DHT22;26723;57.478;12.066;2023-01-30T08:29:56;5.70;99.90
40996;DHT22;26723;57.478;12.066;2023-01-30T08:33:04;6.60;99.90
40996;DHT22;26723;57.478;12.066;2023-01-30T08:36:14;8.30;99.90
40996;DHT22;26723;57.478;12.066;2023-01-30T08:39:23;8.50;99.90
40996;DHT22;26723;57.478;12.066;2023-01-30T08:42:31;9.00;99.90
40996;DHT22;26723;57.478;12.066;2023-01-30T08:45:39;8.70;99.90
40996;DHT22;26723;57.478;12.066;2023-01-30T08:48:48;8.30;99.90
40996;DHT22;26723;57.478;12.066;2023-01-30T08:51:58;7.10;99.90
40996;DHT22;26723;57.478;12.066;2023-01-30T08:55:07;8.20;99.90
40996;DHT22;26723;57.478;12.066;2023-01-30T08:58:15;9.00;99.90
40996;DHT22;26723;57.478;12.066;2023-01-30T09:01:23;9.50;99.90
40996;DHT22;26723;57.478;12.066;2023-01-30T09:04:32;11.10;99.90
40996;DHT22;26723;57.478;12.066;2023-01-30T09:07:42;11.20;99.90
40996;DHT22;26723;57.478;12.066;2023-01-30T09:10:50;10.00;99.90
40996;DHT22;26723;57.478;12.066;2023-01-30T09:13:59;10.60;99.90
40996;DHT22;26723;57.478;12.066;2023-01-30T09:17:07;9.70;99.90
40996;DHT22;26723;57.478;12.066;2023-01-30T09:20:16;8.90;99.90
40996;DHT22;26723;57.478;12.066;2023-01-30T09:23:28;8.20;99.90
40996;DHT22;26723;57.478;12.066;2023-01-30T09:26:39;7.60;99.90
40996;DHT22;26723;57.478;12.066;2023-01-30T09:29:51;7.70;99.90
40996;DHT22;26723;57.478;12.066;2023-01-30T09:33:00;8.90;99.90
40996;DHT22;26723;57.478;12.066;2023-01-30T09:36:08;9.30;99.90
40996;DHT22;26723;57.478;12.066;2023-01-30T09:39:18;9.70;99.90
40996;DHT22;26723;57.478;12.066;2023-01-30T09:42:42;8.40;99.90
40996;DHT22;26723;57.478;12.066;2023-01-30T09:46:07;7.60;99.90
40996;DHT22;26723;57.478;12.066;2023-01-30T09:49:26;7.50;99.90
40996;DHT22;26723;57.478;12.066;2023-01-30T09:52:45;9.50;99.90
40996;DHT22;26723;57.478;12.066;2023-01-30T09:56:00;11.50;99.90
40996;DHT22;26723;57.478;12.066;2023-01-30T09:59:17;11.90;99.90
40996;DHT22;26723;57.478;12.066;2023-01-30T10:02:43;11.90;99.90
40996;DHT22;26723;57.478;12.066;2023-01-30T10:05:57;11.80;99.90
40996;DHT22;26723;57.478;12.066;2023-01-30T10:09:10;11.50;99.90
40996;DHT22;26723;57.478;12.066;2023-01-30T10:12:34;11.40;99.90
40996;DHT22;26723;57.478;12.066;2023-01-30T10:15:52;10.20;99.90
40996;DHT22;26723;57.478;12.066;2023-01-30T10:19:19;9.50;99.90
40996;DHT22;26723;57.478;12.066;2023-01-30T10:22:51;8.70;99.90
40996;DHT22;26723;57.478;12.066;2023-01-30T10:26:09;8.40;99.90
40996;DHT22;26723;57.478;12.066;2023-01-30T10:29:23;8.00;99.90
40996;DHT22;26723;57.478;12.066;2023-01-30T10:32:41;7.80;99.90
40996;DHT22;26723;57.478;12.066;2023-01-30T10:35:58;7.60;99.90
40996;DHT22;26723;57.478;12.066;2023-01-30T10:39:20;7.60;99.90
40996;DHT22;26723;57.478;12.066;2023-01-30T10:42:35;7.90;99.90
40996;DHT22;26723;57.478;12.066;2023-01-30T10:45:54;7.90;99.90
40996;DHT22;26723;57.478;12.066;2023-01-30T10:49:07;8.20;99.90
40996;DHT22;26723;57.478;12.066;2023-01-30T10:52:33;8.20;99.90
40996;DHT22;26723;57.478;12.066;2023-01-30T10:55:47;8.10;99.90
40996;DHT22;26723;57.478;12.066;2023-01-30T10:59:05;8.10;99.90
40996;DHT22;26723;57.478;12.066;2023-01-30T11:02:23;8.10;99.90
40996;DHT22;26723;57.478;12.066;2023-01-30T11:05:40;8.60;99.90
40996;DHT22;26723;57.478;12.066;2023-01-30T11:08:50;8.60;99.90
40996;DHT22;26723;57.478;12.066;2023-01-30T11:11:58;8.60;99.90
40996;DHT22;26723;57.478;12.066;2023-01-30T11:15:08;8.50;99.90
40996;DHT22;26723;57.478;12.066;2023-01-30T11:18:20;8.40;99.90
40996;DHT22;26723;57.478;12.066;2023-01-30T11:21:51;8.10;99.90
40996;DHT22;26723;57.478;12.066;2023-01-30T11:25:02;8.40;99.90
40996;DHT22;26723;57.478;12.066;2023-01-30T11:28:13;8.30;99.90
40996;DHT22;26723;57.478;12.066;2023-01-30T11:31:26;8.40;99.90
40996;DHT22;26723;57.478;12.066;2023-01-30T11:35:03;8.30;99.90
40996;DHT22;26723;57.478;12.066;2023-01-30T11:38:21;8.40;99.90
40996;DHT22;26723;57.478;12.066;2023-01-30T11:41:30;8.40;99.90
40996;DHT22;26723;57.478;12.066;2023-01-30T11:44:40;8.30;99.90
40996;DHT22;26723;57.478;12.066;2023-01-30T11:47:51;8.40;99.90
40996;DHT22;26723;57.478;12.066;2023-01-30T11:51:08;8.10;99.90
40996;DHT22;26723;57.478;12.066;2023-01-30T11:54:19;8.10;99.90
40996;DHT22;26723;57.478;12.066;2023-01-30T11:57:29;8.20;99.90
40996;DHT22;26723;57.478;12.066;2023-01-30T12:00:38;8.10;99.90
40996;DHT22;26723;57.478;12.066;2023-01-30T12:03:50;8.10;99.90
40996;DHT22;26723;57.478;12.066;2023-01-30T12:07:07;7.80;99.90
40996;DHT22;26723;57.478;12.066;2023-01-30T12:10:29;8.00;99.90
40996;DHT22;26723;57.478;12.066;2023-01-30T12:13:38;8.00;99.90
40996;DHT22;26723;57.478;12.066;2023-01-30T12:16:55;8.00;99.90
40996;DHT22;26723;57.478;12.066;2023-01-30T12:20:13;8.00;99.90
40996;DHT22;26723;57.478;12.066;2023-01-30T12:23:29;8.10;99.90
40996;DHT22;26723;57.478;12.066;2023-01-30T12:26:44;8.00;99.90
40996;DHT22;26723;57.478;12.066;2023-01-30T12:29:59;8.00;99.90
40996;DHT22;26723;57.478;12.066;2023-01-30T12:33:11;7.70;99.90
40996;DHT22;26723;57.478;12.066;2023-01-30T12:36:32;7.50;99.90
40996;DHT22;26723;57.478;12.066;2023-01-30T12:39:52;7.40;99.90
40996;DHT22;26723;57.478;12.066;2023-01-30T12:43:19;7.30;99.90
40996;DHT22;26723;57.478;12.066;2023-01-30T12:46:43;7.30;99.90
40996;DHT22;26723;57.478;12.066;2023-01-30T12:50:13;7.30;99.90
40996;DHT22;26723;57.478;12.066;2023-01-30T12:53:39;7.30;99.90
40996;DHT22;26723;57.478;12.066;2023-01-30T12:57:07;7.30;99.90
40996;DHT22;26723;57.478;12.066;2023-01-30T13:00:27;7.30;99.90
40996;DHT22;26723;57.478;12.066;2023-01-30T13:03:40;7.40;99.90
40996;DHT22;26723;57.478;12.066;2023-01-30T13:07:04;7.30;99.90
40996;DHT22;26723;57.478;12.066;2023-01-30T13:10:20;7.30;99.90
40996;DHT22;26723;57.478;12.066;2023-01-30T13:13:37;7.10;99.90
40996;DHT22;26723;57.478;12.066;2023-01-30T13:16:59;7.10;99.90
40996;DHT22;26723;57.478;12.066;2023-01-30T13:20:19;7.00;99.90
40996;DHT22;26723;57.478;12.066;2023-01-30T13:23:43;7.00;99.90
40996;DHT22;26723;57.478;12.066;2023-01-30T13:26:58;7.10;99.90
40996;DHT22;26723;57.478;12.066;2023-01-30T13:30:15;7.00;99.90
40996;DHT22;26723;57.478;12.066;2023-01-30T13:33:27;7.00;99.90
40996;DHT22;26723;57.478;12.066;2023-01-30T13:36:41;7.00;99.90
40996;DHT22;26723;57.478;12.066;2023-01-30T13:39:55;7.00;99.90
40996;DHT22;26723;57.478;12.066;2023-01-30T13:43:10;7.00;99.90
40996;DHT22;26723;57.478;12.066;2023-01-30T13:46:26;7.10;99.90
40996;DHT22;26723;57.478;12.066;2023-01-30T13:49:38;7.00;99.90
40996;DHT22;26723;57.478;12.066;2023-01-30T13:52:55;7.00;99.90
40996;DHT22;26723;57.478;12.066;2023-01-30T13:56:10;7.00;99.90
40996;DHT22;26723;57.478;12.066;2023-01-30T14:00:15;6.90;99.90
40996;DHT22;26723;57.478;12.066;2023-01-30T14:03:30;6.90;99.90
40996;DHT22;26723;57.478;12.066;2023-01-30T14:06:38;6.90;99.90
40996;DHT22;26723;57.478;12.066;2023-01-30T14:09:49;6.90;99.90
40996;DHT22;26723;57.478;12.066;2023-01-30T14:13:04;6.90;99.90
40996;DHT22;26723;57.478;12.066;2023-01-30T14:16:13;6.80;99.90
40996;DHT22;26723;57.478;12.066;2023-01-30T14:19:45;6.80;99.90
40996;DHT22;26723;57.478;12.066;2023-01-30T14:22:56;6.70;99.90
40996;DHT22;26723;57.478;12.066;2023-01-30T14:26:05;6.80;99.90
40996;DHT22;26723;57.478;12.066;2023-01-30T14:29:51;6.80;99.90
40996;DHT22;26723;57.478;12.066;2023-01-30T14:33:01;6.80;99.90
40996;DHT22;26723;57.478;12.066;2023-01-30T14:36:33;6.70;99.90
40996;DHT22;26723;57.478;12.066;2023-01-30T14:39:48;6.70;99.90
40996;DHT22;26723;57.478;12.066;2023-01-30T14:43:34;6.60;99.90
40996;DHT22;26723;57.478;12.066;2023-01-30T14:46:45;6.70;99.90
40996;DHT22;26723;57.478;12.066;2023-01-30T14:50:02;6.70;99.90
40996;DHT22;26723;57.478;12.066;2023-01-30T14:53:12;6.70;99.90
40996;DHT22;26723;57.478;12.066;2023-01-30T14:56:38;6.60;99.90
40996;DHT22;26723;57.478;12.066;2023-01-30T14:59:50;6.60;99.90
40996;DHT22;26723;57.478;12.066;2023-01-30T15:03:19;6.60;99.90
40996;DHT22;26723;57.478;12.066;2023-01-30T15:06:34;6.60;99.90
40996;DHT22;26723;57.478;12.066;2023-01-30T15:09:50;6.50;99.90
40996;DHT22;26723;57.478;12.066;2023-01-30T15:13:22;6.50;99.90
40996;DHT22;26723;57.478;12.066;2023-01-30T15:16:57;6.40;99.90
40996;DHT22;26723;57.478;12.066;2023-01-30T15:20:19;6.40;99.90
40996;DHT22;26723;57.478;12.066;2023-01-30T15:23:50;6.40;99.90
40996;DHT22;26723;57.478;12.066;2023-01-30T15:27:09;6.30;99.90
40996;DHT22;26723;57.478;12.066;2023-01-30T15:30:28;6.30;99.90
40996;DHT22;26723;57.478;12.066;2023-01-30T15:33:45;6.30;99.90
40996;DHT22;26723;57.478;12.066;2023-01-30T15:36:53;6.20;99.90
40996;DHT22;26723;57.478;12.066;2023-01-30T15:40:18;6.10;99.90
40996;DHT22;26723;57.478;12.066;2023-01-30T15:47:26;6.00;99.90
40996;DHT22;26723;57.478;12.066;2023-01-30T15:50:38;6.00;99.90
40996;DHT22;26723;57.478;12.066;2023-01-30T15:53:47;5.90;99.90
40996;DHT22;26723;57.478;12.066;2023-01-30T15:56:57;6.00;99.90
40996;DHT22;26723;57.478;12.066;2023-01-30T16:00:20;5.90;99.90
40996;DHT22;26723;57.478;12.066;2023-01-30T16:03:32;5.90;99.90
40996;DHT22;26723;57.478;12.066;2023-01-30T16:06:42;5.90;99.90
40996;DHT22;26723;57.478;12.066;2023-01-30T16:09:53;5.90;99.90
40996;DHT22;26723;57.478;12.066;2023-01-30T16:13:13;5.90;99.90
40996;DHT22;26723;57.478;12.066;2023-01-30T16:16:23;5.90;99.90
40996;DHT22;26723;57.478;12.066;2023-01-30T16:19:33;5.80;99.90
40996;DHT22;26723;57.478;12.066;2023-01-30T16:22:45;5.80;99.90
40996;DHT22;26723;57.478;12.066;2023-01-30T16:25:54;5.90;99.90
40996;DHT22;26723;57.478;12.066;2023-01-30T16:29:05;5.80;99.90
40996;DHT22;26723;57.478;12.066;2023-01-30T16:32:16;5.80;99.90
40996;DHT22;26723;57.478;12.066;2023-01-30T16:35:30;5.80;99.90
40996;DHT22;26723;57.478;12.066;2023-01-30T16:38:42;5.80;99.90
40996;DHT22;26723;57.478;12.066;2023-01-30T16:41:54;5.80;99.90
40996;DHT22;26723;57.478;12.066;2023-01-30T16:49:14;5.70;99.90
40996;DHT22;26723;57.478;12.066;2023-01-30T16:52:26;5.70;99.90
40996;DHT22;26723;57.478;12.066;2023-01-30T16:55:36;5.70;99.90
40996;DHT22;26723;57.478;12.066;2023-01-30T16:58:46;5.70;99.90
40996;DHT22;26723;57.478;12.066;2023-01-30T17:01:56;5.60;99.90
40996;DHT22;26723;57.478;12.066;2023-01-30T17:05:17;5.60;99.90
40996;DHT22;26723;57.478;12.066;2023-01-30T17:08:46;5.70;99.90
40996;DHT22;26723;57.478;12.066;2023-01-30T17:11:55;5.60;99.90
40996;DHT22;26723;57.478;12.066;2023-01-30T17:18:49;5.50;99.90
40996;DHT22;26723;57.478;12.066;2023-01-30T17:22:01;5.50;99.90
40996;DHT22;26723;57.478;12.066;2023-01-30T17:25:17;5.50;99.90
40996;DHT22;26723;57.478;12.066;2023-01-30T17:28:27;5.50;99.90
40996;DHT22;26723;57.478;12.066;2023-01-30T17:31:36;5.50;99.90
40996;DHT22;26723;57.478;12.066;2023-01-30T17:34:44;5.50;99.90
40996;DHT22;26723;57.478;12.066;2023-01-30T17:37:54;5.40;99.90
40996;DHT22;26723;57.478;12.066;2023-01-30T17:41:17;5.40;99.90
40996;DHT22;26723;57.478;12.066;2023-01-30T17:44:26;5.40;99.90
40996;DHT22;26723;57.478;12.066;2023-01-30T17:47:34;5.40;99.90
40996;DHT22;26723;57.478;12.066;2023-01-30T17:50:43;5.40;99.90
40996;DHT22;26723;57.478;12.066;2023-01-30T17:53:54;5.40;99.90
40996;DHT22;26723;57.478;12.066;2023-01-30T17:57:03;5.40;99.90
40996;DHT22;26723;57.478;12.066;2023-01-30T18:00:17;5.30;99.90
40996;DHT22;26723;57.478;12.066;2023-01-30T18:03:27;5.30;99.90
40996;DHT22;26723;57.478;12.066;2023-01-30T18:06:36;5.20;99.90
40996;DHT22;26723;57.478;12.066;2023-01-30T18:09:47;5.20;99.90
40996;DHT22;26723;57.478;12.066;2023-01-30T18:12:55;5.20;99.90
40996;DHT22;26723;57.478;12.066;2023-01-30T18:16:04;5.10;99.90
40996;DHT22;26723;57.478;12.066;2023-01-30T18:19:14;5.20;99.90
40996;DHT22;26723;57.478;12.066;2023-01-30T18:22:23;5.20;99.90
40996;DHT22;26723;57.478;12.066;2023-01-30T18:25:33;5.90;99.90
40996;DHT22;26723;57.478;12.066;2023-01-30T18:28:41;6.00;99.90
40996;DHT22;26723;57.478;12.066;2023-01-30T18:31:50;5.60;99.90
40996;DHT22;26723;57.478;12.066;2023-01-30T18:34:58;5.40;99.90
40996;DHT22;26723;57.478;12.066;2023-01-30T18:38:07;5.20;99.90
40996;DHT22;26723;57.478;12.066;2023-01-30T18:41:18;5.20;99.90
40996;DHT22;26723;57.478;12.066;2023-01-30T18:44:27;5.20;99.90
40996;DHT22;26723;57.478;12.066;2023-01-30T18:47:35;5.10;99.90
40996;DHT22;26723;57.478;12.066;2023-01-30T18:50:44;5.10;99.90
40996;DHT22;26723;57.478;12.066;2023-01-30T18:53:53;5.10;99.90
40996;DHT22;26723;57.478;12.066;2023-01-30T18:57:03;5.10;99.90
40996;DHT22;26723;57.478;12.066;2023-01-30T19:00:12;5.00;99.90
40996;DHT22;26723;57.478;12.066;2023-01-30T19:03:23;5.00;99.90
40996;DHT22;26723;57.478;12.066;2023-01-30T19:06:35;5.00;99.90
40996;DHT22;26723;57.478;12.066;2023-01-30T19:09:43;5.00;99.90
40996;DHT22;26723;57.478;12.066;2023-01-30T19:12:53;4.90;99.90
40996;DHT22;26723;57.478;12.066;2023-01-30T19:16:19;4.90;99.90
40996;DHT22;26723;57.478;12.066;2023-01-30T19:19:27;4.90;99.90
40996;DHT22;26723;57.478;12.066;2023-01-30T19:22:36;4.90;99.90
40996;DHT22;26723;57.478;12.066;2023-01-30T19:25:52;4.90;99.90
40996;DHT22;26723;57.478;12.066;2023-01-30T19:29:02;4.90;99.90
40996;DHT22;26723;57.478;12.066;2023-01-30T19:32:10;4.90;99.90
40996;DHT22;26723;57.478;12.066;2023-01-30T19:35:19;4.80;99.90
40996;DHT22;26723;57.478;12.066;2023-01-30T19:38:28;4.80;99.90
40996;DHT22;26723;57.478;12.066;2023-01-30T19:41:36;4.80;99.90
40996;DHT22;26723;57.478;12.066;2023-01-30T19:44:46;4.80;99.90
40996;DHT22;26723;57.478;12.066;2023-01-30T19:47:55;4.80;99.90
40996;DHT22;26723;57.478;12.066;2023-01-30T19:51:09;4.70;99.90
40996;DHT22;26723;57.478;12.066;2023-01-30T19:54:19;4.70;99.90
40996;DHT22;26723;57.478;12.066;2023-01-30T19:57:27;4.70;99.90
40996;DHT22;26723;57.478;12.066;2023-01-30T20:00:37;4.60;99.90
40996;DHT22;26723;57.478;12.066;2023-01-30T20:03:46;4.60;99.90
40996;DHT22;26723;57.478;12.066;2023-01-30T20:06:54;4.60;99.90
40996;DHT22;26723;57.478;12.066;2023-01-30T20:10:03;4.60;99.90
40996;DHT22;26723;57.478;12.066;2023-01-30T20:13:12;4.50;99.90
40996;DHT22;26723;57.478;12.066;2023-01-30T20:16:23;4.60;99.90
40996;DHT22;26723;57.478;12.066;2023-01-30T20:19:33;4.50;99.90
40996;DHT22;26723;57.478;12.066;2023-01-30T20:22:41;4.50;99.90
40996;DHT22;26723;57.478;12.066;2023-01-30T20:25:50;4.40;99.90
40996;DHT22;26723;57.478;12.066;2023-01-30T20:28:59;4.30;99.90
40996;DHT22;26723;57.478;12.066;2023-01-30T20:32:09;4.30;99.90
40996;DHT22;26723;57.478;12.066;2023-01-30T20:35:17;4.40;99.90